sensor_id;sensor_type;location;lat;lon;timestamp;pressure;altitude;pressure_sealevel;temperature
15062;BMP180;7630;50.306;8.566;2022-12-05T00:03:04;97577.00;;;6.20
15062;BMP180;7630;50.306;8.566;2022-12-05T00:07:05;97570.00;;;6.30
15062;BMP180;7630;50.306;8.566;2022-12-05T00:11:12;97574.00;;;6.20
15062;BMP180;7630;50.306;8.566;2022-12-05T00:15:14;97574.00;;;5.90
15062;BMP180;7630;50.306;8.566;2022-12-05T00:19:15;97570.00;;;5.90
15062;BMP180;7630;50.306;8.566;2022-12-05T00:23:16;97568.00;;;5.70
15062;BMP180;7630;50.306;8.566;2022-12-05T00:27:17;97565.00;;;5.40
15062;BMP180;7630;50.306;8.566;2022-12-05T00:31:20;97578.00;;;5.40
15062;BMP180;7630;50.306;8.566;2022-12-05T00:35:22;97578.00;;;5.60
15062;BMP180;7630;50.306;8.566;2022-12-05T00:39:24;97572.00;;;5.80
15062;BMP180;7630;50.306;8.566;2022-12-05T00:43:24;97582.00;;;5.60
15062;BMP180;7630;50.306;8.566;2022-12-05T00:47:26;97582.00;;;6.10
15062;BMP180;7630;50.306;8.566;2022-12-05T00:51:29;97584.00;;;5.90
15062;BMP180;7630;50.306;8.566;2022-12-05T00:55:35;97595.00;;;6.00
15062;BMP180;7630;50.306;8.566;2022-12-05T00:59:36;97594.00;;;6.30
15062;BMP180;7630;50.306;8.566;2022-12-05T01:03:37;97597.00;;;5.80
15062;BMP180;7630;50.306;8.566;2022-12-05T01:07:38;97602.00;;;6.10
15062;BMP180;7630;50.306;8.566;2022-12-05T01:11:40;97616.00;;;6.30
15062;BMP180;7630;50.306;8.566;2022-12-05T01:15:42;97624.00;;;6.20
15062;BMP180;7630;50.306;8.566;2022-12-05T01:19:43;97621.00;;;6.10
15062;BMP180;7630;50.306;8.566;2022-12-05T01:23:47;97620.00;;;5.90
15062;BMP180;7630;50.306;8.566;2022-12-05T01:27:48;97622.00;;;5.70
15062;BMP180;7630;50.306;8.566;2022-12-05T01:31:49;97623.00;;;6.20
15062;BMP180;7630;50.306;8.566;2022-12-05T01:35:50;97632.00;;;5.60
15062;BMP180;7630;50.306;8.566;2022-12-05T01:39:52;97621.00;;;5.90
15062;BMP180;7630;50.306;8.566;2022-12-05T01:48:21;97622.00;;;5.70
15062;BMP180;7630;50.306;8.566;2022-12-05T01:52:25;97637.00;;;5.80
15062;BMP180;7630;50.306;8.566;2022-12-05T01:56:27;97626.00;;;5.40
15062;BMP180;7630;50.306;8.566;2022-12-05T02:00:28;97621.00;;;5.80
15062;BMP180;7630;50.306;8.566;2022-12-05T02:04:30;97631.00;;;6.20
15062;BMP180;7630;50.306;8.566;2022-12-05T02:08:32;97639.00;;;6.30
15062;BMP180;7630;50.306;8.566;2022-12-05T02:12:33;97632.00;;;6.20
15062;BMP180;7630;50.306;8.566;2022-12-05T02:16:57;97635.00;;;6.20
15062;BMP180;7630;50.306;8.566;2022-12-05T02:21:26;97644.00;;;6.20
15062;BMP180;7630;50.306;8.566;2022-12-05T02:38:40;97655.00;;;6.40
15062;BMP180;7630;50.306;8.566;2022-12-05T02:46:55;97642.00;;;6.50
15062;BMP180;7630;50.306;8.566;2022-12-05T02:50:59;97646.00;;;6.00
15062;BMP180;7630;50.306;8.566;2022-12-05T02:55:02;97642.00;;;6.10
15062;BMP180;7630;50.306;8.566;2022-12-05T02:59:04;97637.00;;;6.00
15062;BMP180;7630;50.306;8.566;2022-12-05T03:03:11;97633.00;;;5.50
15062;BMP180;7630;50.306;8.566;2022-12-05T03:07:13;97633.00;;;4.90
15062;BMP180;7630;50.306;8.566;2022-12-05T03:11:14;97636.00;;;4.90
15062;BMP180;7630;50.306;8.566;2022-12-05T03:15:19;97640.00;;;5.00
15062;BMP180;7630;50.306;8.566;2022-12-05T03:23:29;97624.00;;;4.60
15062;BMP180;7630;50.306;8.566;2022-12-05T03:28:28;97638.00;;;4.60
15062;BMP180;7630;50.306;8.566;2022-12-05T03:31:54;97643.00;;;5.40
15062;BMP180;7630;50.306;8.566;2022-12-05T03:44:17;97647.00;;;6.40
15062;BMP180;7630;50.306;8.566;2022-12-05T03:52:42;97651.00;;;5.90
15062;BMP180;7630;50.306;8.566;2022-12-05T03:56:45;97662.00;;;6.20
15062;BMP180;7630;50.306;8.566;2022-12-05T04:00:48;97660.00;;;6.10
15062;BMP180;7630;50.306;8.566;2022-12-05T04:05:09;97667.00;;;6.30
15062;BMP180;7630;50.306;8.566;2022-12-05T04:09:21;97661.00;;;6.20
15062;BMP180;7630;50.306;8.566;2022-12-05T04:13:36;97662.00;;;6.40
15062;BMP180;7630;50.306;8.566;2022-12-05T04:17:49;97674.00;;;6.20
15062;BMP180;7630;50.306;8.566;2022-12-05T04:21:51;97672.00;;;6.20
15062;BMP180;7630;50.306;8.566;2022-12-05T04:26:12;97671.00;;;6.20
15062;BMP180;7630;50.306;8.566;2022-12-05T04:30:19;97676.00;;;6.30
15062;BMP180;7630;50.306;8.566;2022-12-05T04:34:19;97679.00;;;6.60
15062;BMP180;7630;50.306;8.566;2022-12-05T04:38:31;97683.00;;;6.60
15062;BMP180;7630;50.306;8.566;2022-12-05T04:42:33;97688.00;;;6.10
15062;BMP180;7630;50.306;8.566;2022-12-05T04:46:38;97690.00;;;6.10
15062;BMP180;7630;50.306;8.566;2022-12-05T04:50:41;97692.00;;;4.90
15062;BMP180;7630;50.306;8.566;2022-12-05T04:54:54;97690.00;;;4.50
15062;BMP180;7630;50.306;8.566;2022-12-05T04:58:53;97696.00;;;4.40
15062;BMP180;7630;50.306;8.566;2022-12-05T05:07:16;97702.00;;;5.90
15062;BMP180;7630;50.306;8.566;2022-12-05T05:11:23;97705.00;;;5.60
15062;BMP180;7630;50.306;8.566;2022-12-05T05:15:25;97710.00;;;6.30
15062;BMP180;7630;50.306;8.566;2022-12-05T05:19:27;97699.00;;;6.40
15062;BMP180;7630;50.306;8.566;2022-12-05T05:23:29;97704.00;;;6.50
15062;BMP180;7630;50.306;8.566;2022-12-05T05:27:30;97711.00;;;5.70
15062;BMP180;7630;50.306;8.566;2022-12-05T05:31:31;97720.00;;;6.20
15062;BMP180;7630;50.306;8.566;2022-12-05T05:35:35;97717.00;;;6.60
15062;BMP180;7630;50.306;8.566;2022-12-05T05:39:36;97713.00;;;6.70
15062;BMP180;7630;50.306;8.566;2022-12-05T05:43:39;97720.00;;;6.40
15062;BMP180;7630;50.306;8.566;2022-12-05T05:47:41;97726.00;;;6.20
15062;BMP180;7630;50.306;8.566;2022-12-05T05:51:42;97694.00;;;6.40
15062;BMP180;7630;50.306;8.566;2022-12-05T05:55:43;97717.00;;;6.50
15062;BMP180;7630;50.306;8.566;2022-12-05T05:59:45;97722.00;;;6.30
15062;BMP180;7630;50.306;8.566;2022-12-05T06:03:46;97726.00;;;6.50
15062;BMP180;7630;50.306;8.566;2022-12-05T06:07:51;97736.00;;;6.30
15062;BMP180;7630;50.306;8.566;2022-12-05T06:11:53;97739.00;;;5.80
15062;BMP180;7630;50.306;8.566;2022-12-05T06:15:54;97748.00;;;5.70
15062;BMP180;7630;50.306;8.566;2022-12-05T06:19:55;97745.00;;;6.10
15062;BMP180;7630;50.306;8.566;2022-12-05T06:23:57;97747.00;;;6.00
15062;BMP180;7630;50.306;8.566;2022-12-05T06:27:59;97742.00;;;6.60
15062;BMP180;7630;50.306;8.566;2022-12-05T06:32:00;97741.00;;;6.20
15062;BMP180;7630;50.306;8.566;2022-12-05T06:36:07;97734.00;;;4.80
15062;BMP180;7630;50.306;8.566;2022-12-05T06:40:10;97750.00;;;6.00
15062;BMP180;7630;50.306;8.566;2022-12-05T06:44:12;97742.00;;;6.60
15062;BMP180;7630;50.306;8.566;2022-12-05T06:48:13;97757.00;;;5.40
15062;BMP180;7630;50.306;8.566;2022-12-05T06:52:14;97754.00;;;4.60
15062;BMP180;7630;50.306;8.566;2022-12-05T06:56:17;97749.00;;;4.20
15062;BMP180;7630;50.306;8.566;2022-12-05T07:00:20;97756.00;;;4.30
15062;BMP180;7630;50.306;8.566;2022-12-05T07:04:40;97776.00;;;5.00
15062;BMP180;7630;50.306;8.566;2022-12-05T07:08:41;97773.00;;;5.60
15062;BMP180;7630;50.306;8.566;2022-12-05T07:12:42;97779.00;;;5.80
15062;BMP180;7630;50.306;8.566;2022-12-05T07:16:44;97786.00;;;6.10
15062;BMP180;7630;50.306;8.566;2022-12-05T07:20:54;97778.00;;;6.50
15062;BMP180;7630;50.306;8.566;2022-12-05T07:24:52;97772.00;;;6.10
15062;BMP180;7630;50.306;8.566;2022-12-05T07:28:55;97781.00;;;5.50
15062;BMP180;7630;50.306;8.566;2022-12-05T07:32:57;97789.00;;;5.20
15062;BMP180;7630;50.306;8.566;2022-12-05T07:36:59;97788.00;;;5.50
15062;BMP180;7630;50.306;8.566;2022-12-05T07:41:10;97790.00;;;5.20
15062;BMP180;7630;50.306;8.566;2022-12-05T07:45:13;97793.00;;;4.90
15062;BMP180;7630;50.306;8.566;2022-12-05T07:49:14;97795.00;;;4.40
15062;BMP180;7630;50.306;8.566;2022-12-05T07:53:18;97816.00;;;5.40
15062;BMP180;7630;50.306;8.566;2022-12-05T07:57:20;97806.00;;;5.40
15062;BMP180;7630;50.306;8.566;2022-12-05T08:01:23;97661.00;;;6.00
15062;BMP180;7630;50.306;8.566;2022-12-05T08:05:25;97817.00;;;5.40
15062;BMP180;7630;50.306;8.566;2022-12-05T08:09:26;97817.00;;;6.10
15062;BMP180;7630;50.306;8.566;2022-12-05T08:13:28;97832.00;;;6.40
15062;BMP180;7630;50.306;8.566;2022-12-05T08:17:29;97831.00;;;7.00
15062;BMP180;7630;50.306;8.566;2022-12-05T08:21:33;97839.00;;;6.30
15062;BMP180;7630;50.306;8.566;2022-12-05T08:25:35;97855.00;;;6.70
15062;BMP180;7630;50.306;8.566;2022-12-05T08:29:36;97851.00;;;6.80
15062;BMP180;7630;50.306;8.566;2022-12-05T08:33:38;97850.00;;;6.90
15062;BMP180;7630;50.306;8.566;2022-12-05T08:37:39;97858.00;;;6.90
15062;BMP180;7630;50.306;8.566;2022-12-05T08:41:45;97859.00;;;7.00
15062;BMP180;7630;50.306;8.566;2022-12-05T08:45:51;97863.00;;;6.30
15062;BMP180;7630;50.306;8.566;2022-12-05T08:49:52;97866.00;;;6.90
15062;BMP180;7630;50.306;8.566;2022-12-05T08:53:54;97868.00;;;6.70
15062;BMP180;7630;50.306;8.566;2022-12-05T08:57:56;97879.00;;;6.00
15062;BMP180;7630;50.306;8.566;2022-12-05T09:01:57;97870.00;;;6.90
15062;BMP180;7630;50.306;8.566;2022-12-05T09:06:13;97884.00;;;7.30
15062;BMP180;7630;50.306;8.566;2022-12-05T09:10:14;97878.00;;;7.50
15062;BMP180;7630;50.306;8.566;2022-12-05T09:14:16;97887.00;;;7.30
15062;BMP180;7630;50.306;8.566;2022-12-05T09:18:17;97880.00;;;7.20
15062;BMP180;7630;50.306;8.566;2022-12-05T09:22:19;97895.00;;;7.20
15062;BMP180;7630;50.306;8.566;2022-12-05T09:26:26;97900.00;;;7.10
15062;BMP180;7630;50.306;8.566;2022-12-05T09:30:27;97875.00;;;6.60
15062;BMP180;7630;50.306;8.566;2022-12-05T09:34:29;97913.00;;;6.50
15062;BMP180;7630;50.306;8.566;2022-12-05T09:38:31;97913.00;;;6.50
15062;BMP180;7630;50.306;8.566;2022-12-05T09:42:57;97908.00;;;6.60
15062;BMP180;7630;50.306;8.566;2022-12-05T09:47:07;97898.00;;;7.40
15062;BMP180;7630;50.306;8.566;2022-12-05T09:51:08;97891.00;;;7.50
15062;BMP180;7630;50.306;8.566;2022-12-05T09:55:13;97898.00;;;7.90
15062;BMP180;7630;50.306;8.566;2022-12-05T09:59:16;97906.00;;;7.80
15062;BMP180;7630;50.306;8.566;2022-12-05T10:03:41;97903.00;;;7.80
15062;BMP180;7630;50.306;8.566;2022-12-05T10:16:28;97893.00;;;7.50
15062;BMP180;7630;50.306;8.566;2022-12-05T10:20:29;97898.00;;;7.70
15062;BMP180;7630;50.306;8.566;2022-12-05T10:24:35;97897.00;;;7.70
15062;BMP180;7630;50.306;8.566;2022-12-05T10:28:45;97896.00;;;8.00
15062;BMP180;7630;50.306;8.566;2022-12-05T10:32:55;97898.00;;;7.60
15062;BMP180;7630;50.306;8.566;2022-12-05T10:41:05;97893.00;;;7.80
15062;BMP180;7630;50.306;8.566;2022-12-05T10:45:13;97890.00;;;8.20
15062;BMP180;7630;50.306;8.566;2022-12-05T10:49:14;97886.00;;;8.10
15062;BMP180;7630;50.306;8.566;2022-12-05T10:53:20;97888.00;;;8.00
15062;BMP180;7630;50.306;8.566;2022-12-05T10:57:25;97877.00;;;8.50
15062;BMP180;7630;50.306;8.566;2022-12-05T11:01:27;97884.00;;;8.60
15062;BMP180;7630;50.306;8.566;2022-12-05T11:05:30;97877.00;;;7.90
15062;BMP180;7630;50.306;8.566;2022-12-05T11:09:35;97876.00;;;8.60
15062;BMP180;7630;50.306;8.566;2022-12-05T11:13:41;97879.00;;;9.20
15062;BMP180;7630;50.306;8.566;2022-12-05T11:17:42;97890.00;;;9.30
15062;BMP180;7630;50.306;8.566;2022-12-05T11:21:43;97882.00;;;9.60
15062;BMP180;7630;50.306;8.566;2022-12-05T11:25:45;97887.00;;;8.90
15062;BMP180;7630;50.306;8.566;2022-12-05T11:30:03;97883.00;;;9.20
15062;BMP180;7630;50.306;8.566;2022-12-05T11:34:19;97886.00;;;9.10
15062;BMP180;7630;50.306;8.566;2022-12-05T11:38:23;97883.00;;;8.70
15062;BMP180;7630;50.306;8.566;2022-12-05T12:08:02;97880.00;;;6.60
15062;BMP180;7630;50.306;8.566;2022-12-05T12:12:27;97882.00;;;6.80
15062;BMP180;7630;50.306;8.566;2022-12-05T12:29:43;97879.00;;;8.20
15062;BMP180;7630;50.306;8.566;2022-12-05T12:46:49;97884.00;;;7.30
15062;BMP180;7630;50.306;8.566;2022-12-05T12:50:52;97883.00;;;8.20
15062;BMP180;7630;50.306;8.566;2022-12-05T13:03:45;97893.00;;;8.20
15062;BMP180;7630;50.306;8.566;2022-12-05T13:07:56;97895.00;;;8.80
15062;BMP180;7630;50.306;8.566;2022-12-05T13:12:01;97882.00;;;8.10
15062;BMP180;7630;50.306;8.566;2022-12-05T13:16:05;97884.00;;;8.50
15062;BMP180;7630;50.306;8.566;2022-12-05T13:20:16;97874.00;;;8.00
15062;BMP180;7630;50.306;8.566;2022-12-05T13:24:19;97882.00;;;7.00
15062;BMP180;7630;50.306;8.566;2022-12-05T13:28:28;97885.00;;;6.70
15062;BMP180;7630;50.306;8.566;2022-12-05T13:32:37;97893.00;;;6.70
15062;BMP180;7630;50.306;8.566;2022-12-05T13:36:40;97889.00;;;6.30
15062;BMP180;7630;50.306;8.566;2022-12-05T13:41:00;97903.00;;;6.40
15062;BMP180;7630;50.306;8.566;2022-12-05T13:45:21;97910.00;;;6.60
15062;BMP180;7630;50.306;8.566;2022-12-05T13:49:44;97907.00;;;7.60
15062;BMP180;7630;50.306;8.566;2022-12-05T13:53:47;97905.00;;;7.10
15062;BMP180;7630;50.306;8.566;2022-12-05T13:57:54;97904.00;;;7.10
15062;BMP180;7630;50.306;8.566;2022-12-05T14:01:56;97903.00;;;7.20
15062;BMP180;7630;50.306;8.566;2022-12-05T14:05:57;97901.00;;;7.50
15062;BMP180;7630;50.306;8.566;2022-12-05T14:09:59;97907.00;;;7.30
15062;BMP180;7630;50.306;8.566;2022-12-05T14:14:01;97909.00;;;7.80
15062;BMP180;7630;50.306;8.566;2022-12-05T14:18:15;97909.00;;;6.60
15062;BMP180;7630;50.306;8.566;2022-12-05T14:30:47;97915.00;;;8.00
15062;BMP180;7630;50.306;8.566;2022-12-05T14:38:59;97926.00;;;8.00
15062;BMP180;7630;50.306;8.566;2022-12-05T14:43:25;97926.00;;;8.30
15062;BMP180;7630;50.306;8.566;2022-12-05T14:47:30;97926.00;;;8.30
15062;BMP180;7630;50.306;8.566;2022-12-05T14:55:37;97918.00;;;8.30
15062;BMP180;7630;50.306;8.566;2022-12-05T14:59:46;97925.00;;;8.30
15062;BMP180;7630;50.306;8.566;2022-12-05T15:08:13;97925.00;;;7.90
15062;BMP180;7630;50.306;8.566;2022-12-05T15:12:37;97927.00;;;8.20
15062;BMP180;7630;50.306;8.566;2022-12-05T15:16:39;97924.00;;;8.00
15062;BMP180;7630;50.306;8.566;2022-12-05T15:21:09;97924.00;;;8.00
15062;BMP180;7630;50.306;8.566;2022-12-05T15:25:30;97909.00;;;7.90
15062;BMP180;7630;50.306;8.566;2022-12-05T15:29:32;97924.00;;;8.10
15062;BMP180;7630;50.306;8.566;2022-12-05T15:33:34;97930.00;;;8.20
15062;BMP180;7630;50.306;8.566;2022-12-05T15:37:53;97930.00;;;8.00
15062;BMP180;7630;50.306;8.566;2022-12-05T15:41:56;97939.00;;;8.00
15062;BMP180;7630;50.306;8.566;2022-12-05T15:46:08;97935.00;;;8.40
15062;BMP180;7630;50.306;8.566;2022-12-05T15:50:14;97929.00;;;8.20
15062;BMP180;7630;50.306;8.566;2022-12-05T15:54:18;97933.00;;;8.50
15062;BMP180;7630;50.306;8.566;2022-12-05T15:58:35;97928.00;;;8.50
15062;BMP180;7630;50.306;8.566;2022-12-05T16:06:50;97933.00;;;8.60
15062;BMP180;7630;50.306;8.566;2022-12-05T16:10:52;97933.00;;;8.70
15062;BMP180;7630;50.306;8.566;2022-12-05T16:14:56;97938.00;;;8.60
15062;BMP180;7630;50.306;8.566;2022-12-05T16:19:10;97949.00;;;8.70
15062;BMP180;7630;50.306;8.566;2022-12-05T16:23:23;97940.00;;;8.70
15062;BMP180;7630;50.306;8.566;2022-12-05T16:27:33;97942.00;;;8.50
15062;BMP180;7630;50.306;8.566;2022-12-05T16:31:35;97943.00;;;8.00
15062;BMP180;7630;50.306;8.566;2022-12-05T16:35:41;97939.00;;;7.70
15062;BMP180;7630;50.306;8.566;2022-12-05T16:39:44;97946.00;;;8.00
15062;BMP180;7630;50.306;8.566;2022-12-05T16:43:46;97944.00;;;7.20
15062;BMP180;7630;50.306;8.566;2022-12-05T16:47:53;97947.00;;;7.20
15062;BMP180;7630;50.306;8.566;2022-12-05T16:56:05;97958.00;;;6.60
15062;BMP180;7630;50.306;8.566;2022-12-05T17:00:15;97962.00;;;7.30
15062;BMP180;7630;50.306;8.566;2022-12-05T17:04:16;97946.00;;;7.90
15062;BMP180;7630;50.306;8.566;2022-12-05T17:08:18;97952.00;;;8.20
15062;BMP180;7630;50.306;8.566;2022-12-05T17:12:22;97957.00;;;8.30
15062;BMP180;7630;50.306;8.566;2022-12-05T17:16:25;97955.00;;;8.20
15062;BMP180;7630;50.306;8.566;2022-12-05T17:20:27;97958.00;;;8.20
15062;BMP180;7630;50.306;8.566;2022-12-05T17:24:28;97874.00;;;8.30
15062;BMP180;7630;50.306;8.566;2022-12-05T17:28:30;97959.00;;;8.50
15062;BMP180;7630;50.306;8.566;2022-12-05T17:32:31;97956.00;;;8.60
15062;BMP180;7630;50.306;8.566;2022-12-05T17:36:33;97961.00;;;7.20
15062;BMP180;7630;50.306;8.566;2022-12-05T17:40:36;97960.00;;;7.80
15062;BMP180;7630;50.306;8.566;2022-12-05T17:44:37;97956.00;;;7.50
15062;BMP180;7630;50.306;8.566;2022-12-05T17:48:39;97962.00;;;7.90
15062;BMP180;7630;50.306;8.566;2022-12-05T17:52:40;97971.00;;;8.20
15062;BMP180;7630;50.306;8.566;2022-12-05T17:56:42;97971.00;;;8.20
15062;BMP180;7630;50.306;8.566;2022-12-05T18:00:44;97971.00;;;7.90
15062;BMP180;7630;50.306;8.566;2022-12-05T18:04:46;97970.00;;;8.10
15062;BMP180;7630;50.306;8.566;2022-12-05T18:08:48;97977.00;;;8.30
15062;BMP180;7630;50.306;8.566;2022-12-05T18:12:50;97976.00;;;8.10
15062;BMP180;7630;50.306;8.566;2022-12-05T18:16:51;97976.00;;;8.60
15062;BMP180;7630;50.306;8.566;2022-12-05T18:20:53;97964.00;;;8.50
15062;BMP180;7630;50.306;8.566;2022-12-05T18:24:54;97971.00;;;8.50
15062;BMP180;7630;50.306;8.566;2022-12-05T18:28:58;97972.00;;;8.50
15062;BMP180;7630;50.306;8.566;2022-12-05T18:32:59;97967.00;;;8.40
15062;BMP180;7630;50.306;8.566;2022-12-05T18:37:00;97970.00;;;8.60
15062;BMP180;7630;50.306;8.566;2022-12-05T18:41:03;97973.00;;;8.50
15062;BMP180;7630;50.306;8.566;2022-12-05T18:45:06;97969.00;;;8.60
15062;BMP180;7630;50.306;8.566;2022-12-05T18:49:10;97970.00;;;8.60
15062;BMP180;7630;50.306;8.566;2022-12-05T18:53:12;97971.00;;;8.40
15062;BMP180;7630;50.306;8.566;2022-12-05T18:57:14;97974.00;;;8.50
15062;BMP180;7630;50.306;8.566;2022-12-05T19:01:15;97975.00;;;8.70
15062;BMP180;7630;50.306;8.566;2022-12-05T19:05:18;97973.00;;;8.40
15062;BMP180;7630;50.306;8.566;2022-12-05T19:09:21;97974.00;;;8.50
15062;BMP180;7630;50.306;8.566;2022-12-05T19:13:22;97973.00;;;8.70
15062;BMP180;7630;50.306;8.566;2022-12-05T19:17:24;97970.00;;;8.70
15062;BMP180;7630;50.306;8.566;2022-12-05T19:21:29;97972.00;;;8.70
15062;BMP180;7630;50.306;8.566;2022-12-05T19:25:30;97976.00;;;8.10
15062;BMP180;7630;50.306;8.566;2022-12-05T19:29:32;97966.00;;;8.00
15062;BMP180;7630;50.306;8.566;2022-12-05T19:33:35;97975.00;;;8.50
15062;BMP180;7630;50.306;8.566;2022-12-05T19:37:38;97995.00;;;8.90
15062;BMP180;7630;50.306;8.566;2022-12-05T19:41:39;97973.00;;;8.80
15062;BMP180;7630;50.306;8.566;2022-12-05T19:45:41;97973.00;;;8.80
15062;BMP180;7630;50.306;8.566;2022-12-05T19:49:42;97980.00;;;8.80
15062;BMP180;7630;50.306;8.566;2022-12-05T19:53:44;97978.00;;;8.70
15062;BMP180;7630;50.306;8.566;2022-12-05T19:57:47;97984.00;;;8.90
15062;BMP180;7630;50.306;8.566;2022-12-05T20:01:48;97990.00;;;8.80
15062;BMP180;7630;50.306;8.566;2022-12-05T20:05:58;97988.00;;;8.90
15062;BMP180;7630;50.306;8.566;2022-12-05T20:09:59;97988.00;;;8.90
15062;BMP180;7630;50.306;8.566;2022-12-05T20:14:01;97995.00;;;8.80
15062;BMP180;7630;50.306;8.566;2022-12-05T20:18:02;97987.00;;;8.70
15062;BMP180;7630;50.306;8.566;2022-12-05T20:22:03;97993.00;;;8.50
15062;BMP180;7630;50.306;8.566;2022-12-05T20:26:15;97987.00;;;8.30
15062;BMP180;7630;50.306;8.566;2022-12-05T20:30:12;97990.00;;;8.50
15062;BMP180;7630;50.306;8.566;2022-12-05T20:34:13;97997.00;;;8.20
15062;BMP180;7630;50.306;8.566;2022-12-05T20:38:15;97995.00;;;8.10
15062;BMP180;7630;50.306;8.566;2022-12-05T20:42:16;97991.00;;;8.30
15062;BMP180;7630;50.306;8.566;2022-12-05T20:46:19;97989.00;;;7.60
15062;BMP180;7630;50.306;8.566;2022-12-05T20:50:21;97993.00;;;7.90
15062;BMP180;7630;50.306;8.566;2022-12-05T20:54:23;97996.00;;;8.30
15062;BMP180;7630;50.306;8.566;2022-12-05T20:58:24;97990.00;;;8.30
15062;BMP180;7630;50.306;8.566;2022-12-05T21:02:26;97987.00;;;8.00
15062;BMP180;7630;50.306;8.566;2022-12-05T21:06:30;97991.00;;;8.00
15062;BMP180;7630;50.306;8.566;2022-12-05T21:10:31;97982.00;;;8.50
15062;BMP180;7630;50.306;8.566;2022-12-05T21:14:32;97987.00;;;8.10
15062;BMP180;7630;50.306;8.566;2022-12-05T21:18:34;97986.00;;;8.20
15062;BMP180;7630;50.306;8.566;2022-12-05T21:22:36;97986.00;;;8.00
15062;BMP180;7630;50.306;8.566;2022-12-05T21:26:38;97993.00;;;7.70
15062;BMP180;7630;50.306;8.566;2022-12-05T21:30:39;97993.00;;;7.50
15062;BMP180;7630;50.306;8.566;2022-12-05T21:34:41;97989.00;;;7.30
15062;BMP180;7630;50.306;8.566;2022-12-05T21:38:42;97992.00;;;7.10
15062;BMP180;7630;50.306;8.566;2022-12-05T21:42:44;97986.00;;;6.90
15062;BMP180;7630;50.306;8.566;2022-12-05T21:46:45;97982.00;;;6.90
15062;BMP180;7630;50.306;8.566;2022-12-05T21:50:47;97986.00;;;6.70
15062;BMP180;7630;50.306;8.566;2022-12-05T21:54:48;97990.00;;;7.50
15062;BMP180;7630;50.306;8.566;2022-12-05T21:58:50;97991.00;;;7.10
15062;BMP180;7630;50.306;8.566;2022-12-05T22:02:53;97999.00;;;7.10
15062;BMP180;7630;50.306;8.566;2022-12-05T22:06:54;97992.00;;;6.50
15062;BMP180;7630;50.306;8.566;2022-12-05T22:11:06;97999.00;;;7.00
15062;BMP180;7630;50.306;8.566;2022-12-05T22:15:08;97999.00;;;7.30
15062;BMP180;7630;50.306;8.566;2022-12-05T22:19:10;98003.00;;;7.00
15062;BMP180;7630;50.306;8.566;2022-12-05T22:23:11;97987.00;;;6.70
15062;BMP180;7630;50.306;8.566;2022-12-05T22:27:14;97993.00;;;6.80
15062;BMP180;7630;50.306;8.566;2022-12-05T22:31:16;97988.00;;;6.80
15062;BMP180;7630;50.306;8.566;2022-12-05T22:35:18;97983.00;;;7.30
15062;BMP180;7630;50.306;8.566;2022-12-05T22:39:19;97987.00;;;6.70
15062;BMP180;7630;50.306;8.566;2022-12-05T22:43:21;97986.00;;;6.90
15062;BMP180;7630;50.306;8.566;2022-12-05T22:47:22;97986.00;;;6.80
15062;BMP180;7630;50.306;8.566;2022-12-05T22:51:23;97988.00;;;6.30
15062;BMP180;7630;50.306;8.566;2022-12-05T22:55:26;97906.00;;;6.70
15062;BMP180;7630;50.306;8.566;2022-12-05T22:59:27;97986.00;;;6.80
15062;BMP180;7630;50.306;8.566;2022-12-05T23:03:28;97985.00;;;6.60
15062;BMP180;7630;50.306;8.566;2022-12-05T23:07:30;97983.00;;;6.20
15062;BMP180;7630;50.306;8.566;2022-12-05T23:11:31;97978.00;;;6.90
15062;BMP180;7630;50.306;8.566;2022-12-05T23:15:35;97972.00;;;6.60
15062;BMP180;7630;50.306;8.566;2022-12-05T23:19:36;97959.00;;;6.70
15062;BMP180;7630;50.306;8.566;2022-12-05T23:23:37;97973.00;;;6.50
15062;BMP180;7630;50.306;8.566;2022-12-05T23:27:39;97970.00;;;6.90
15062;BMP180;7630;50.306;8.566;2022-12-05T23:31:41;97964.00;;;6.30
15062;BMP180;7630;50.306;8.566;2022-12-05T23:35:43;97960.00;;;6.40
15062;BMP180;7630;50.306;8.566;2022-12-05T23:39:44;97966.00;;;6.40
15062;BMP180;7630;50.306;8.566;2022-12-05T23:43:48;97965.00;;;5.90
15062;BMP180;7630;50.306;8.566;2022-12-05T23:47:49;97964.00;;;5.70
15062;BMP180;7630;50.306;8.566;2022-12-05T23:51:50;97960.00;;;6.40
15062;BMP180;7630;50.306;8.566;2022-12-05T23:55:52;97962.00;;;5.40
15062;BMP180;7630;50.306;8.566;2022-12-05T23:59:53;97962.00;;;6.00
